createdAt,value
2022-12-31T00:02:04.133Z,3.62
2022-12-31T00:04:45.072Z,3.67
2022-12-31T00:07:23.354Z,3.64
2022-12-31T00:10:00.767Z,3.68
2022-12-31T00:12:38.918Z,3.57
2022-12-31T00:15:27.728Z,3.61
2022-12-31T00:18:02.778Z,3.60
2022-12-31T00:20:43.435Z,3.68
2022-12-31T00:23:16.187Z,3.63
2022-12-31T00:25:56.842Z,3.54
2022-12-31T00:28:34.783Z,3.52
2022-12-31T00:31:21.860Z,3.63
2022-12-31T00:34:02.193Z,3.58
2022-12-31T00:36:46.288Z,3.41
2022-12-31T00:39:24.396Z,3.51
2022-12-31T00:42:03.933Z,3.46
2022-12-31T00:44:44.651Z,3.46
2022-12-31T00:47:26.532Z,3.51
2022-12-31T00:50:12.073Z,3.52
2022-12-31T00:52:43.792Z,3.50
2022-12-31T00:55:24.374Z,3.57
2022-12-31T00:58:00.772Z,3.44
2022-12-31T01:00:41.502Z,3.47
2022-12-31T01:03:26.507Z,3.48
2022-12-31T01:06:04.488Z,3.42
2022-12-31T01:08:53.320Z,3.57
2022-12-31T01:11:37.494Z,3.62
2022-12-31T01:14:18.810Z,3.56
2022-12-31T01:16:58.855Z,3.47
2022-12-31T01:19:36.635Z,3.41
2022-12-31T01:22:11.775Z,3.47
2022-12-31T01:24:49.226Z,3.43
2022-12-31T01:27:22.543Z,3.45
2022-12-31T01:30:00.111Z,3.43
2022-12-31T01:32:34.784Z,3.40
2022-12-31T01:35:13.329Z,3.39
2022-12-31T01:37:45.897Z,3.35
2022-12-31T01:40:30.405Z,3.39
2022-12-31T01:43:21.922Z,3.40
2022-12-31T01:45:57.835Z,3.46
2022-12-31T01:48:35.592Z,3.39
2022-12-31T01:51:24.378Z,3.43
2022-12-31T01:54:09.074Z,3.35
2022-12-31T01:56:53.899Z,3.44
2022-12-31T01:59:38.205Z,3.46
2022-12-31T02:02:19.975Z,3.38
2022-12-31T02:05:04.140Z,3.39
2022-12-31T02:07:46.501Z,3.43
2022-12-31T02:10:30.406Z,3.40
2022-12-31T02:13:09.369Z,3.38
2022-12-31T02:16:01.730Z,3.41
2022-12-31T02:18:59.260Z,3.40
2022-12-31T02:21:50.112Z,3.45
2022-12-31T02:24:49.478Z,3.40
2022-12-31T02:28:07.402Z,3.26
2022-12-31T02:30:50.236Z,3.37
2022-12-31T02:33:37.836Z,3.29
2022-12-31T02:36:21.430Z,3.28
2022-12-31T02:39:01.898Z,3.39
2022-12-31T02:41:55.274Z,3.38
2022-12-31T02:44:43.742Z,3.37
2022-12-31T02:47:46.031Z,3.40
2022-12-31T02:50:55.741Z,3.36
2022-12-31T02:53:42.917Z,3.50
2022-12-31T02:56:42.438Z,3.49
2022-12-31T02:59:46.702Z,3.53
2022-12-31T03:02:24.745Z,3.39
2022-12-31T03:05:04.243Z,3.46
2022-12-31T03:07:46.046Z,3.48
2022-12-31T03:10:21.372Z,3.55
2022-12-31T03:13:07.823Z,3.52
2022-12-31T03:15:52.018Z,3.47
2022-12-31T03:18:51.259Z,3.62
2022-12-31T03:21:45.247Z,3.59
2022-12-31T03:24:46.742Z,3.56
2022-12-31T03:27:33.361Z,3.46
2022-12-31T03:30:17.714Z,3.47
2022-12-31T03:33:01.934Z,3.48
2022-12-31T03:35:40.239Z,3.52
2022-12-31T03:38:24.206Z,3.50
2022-12-31T03:41:06.675Z,3.61
2022-12-31T03:43:50.487Z,3.63
2022-12-31T03:46:25.244Z,3.60
2022-12-31T03:48:59.162Z,3.51
2022-12-31T03:51:39.324Z,3.56
2022-12-31T03:54:13.795Z,3.48
2022-12-31T03:56:56.716Z,3.65
2022-12-31T03:59:48.178Z,3.70
2022-12-31T04:02:29.472Z,3.59
2022-12-31T04:05:13.418Z,3.59
2022-12-31T04:07:55.845Z,3.62
2022-12-31T04:10:40.285Z,3.58
2022-12-31T04:13:15.401Z,3.60
2022-12-31T04:16:05.676Z,3.48
2022-12-31T04:18:46.652Z,3.49
2022-12-31T04:21:34.683Z,3.52
2022-12-31T04:24:14.420Z,3.59
2022-12-31T04:26:44.444Z,3.48
2022-12-31T04:29:22.462Z,3.48
2022-12-31T04:32:06.427Z,3.60
2022-12-31T04:34:51.349Z,3.57
2022-12-31T04:37:30.339Z,3.60
2022-12-31T04:40:08.128Z,3.46
2022-12-31T04:42:45.636Z,3.51
2022-12-31T04:45:24.051Z,3.52
2022-12-31T04:48:07.544Z,3.54
2022-12-31T04:50:54.522Z,3.66
2022-12-31T04:53:29.591Z,3.70
2022-12-31T04:56:13.004Z,3.63
2022-12-31T04:58:55.648Z,3.62
2022-12-31T05:01:34.435Z,3.57
2022-12-31T05:04:10.383Z,3.64
2022-12-31T05:06:53.019Z,3.72
2022-12-31T05:09:28.526Z,3.70
2022-12-31T05:12:03.141Z,3.62
2022-12-31T05:14:38.502Z,3.59
2022-12-31T05:17:23.640Z,3.59
2022-12-31T05:19:58.993Z,3.61
2022-12-31T05:22:39.575Z,3.66
2022-12-31T05:25:25.249Z,3.63
2022-12-31T05:28:00.203Z,3.64
2022-12-31T05:30:49.293Z,3.65
2022-12-31T05:33:25.124Z,3.61
2022-12-31T05:36:03.443Z,3.67
2022-12-31T05:38:46.650Z,3.68
2022-12-31T05:41:28.350Z,3.63
2022-12-31T05:44:09.383Z,3.58
2022-12-31T05:46:47.882Z,3.59
2022-12-31T05:49:19.389Z,3.65
2022-12-31T05:51:58.532Z,3.67
2022-12-31T05:54:36.844Z,3.72
2022-12-31T05:57:20.194Z,3.68
2022-12-31T06:00:03.813Z,3.69
2022-12-31T06:02:53.381Z,3.69
2022-12-31T06:05:28.607Z,3.73
2022-12-31T06:08:13.776Z,3.69
2022-12-31T06:10:51.371Z,3.77
2022-12-31T06:13:39.911Z,3.68
2022-12-31T06:16:14.710Z,3.68
2022-12-31T06:18:56.432Z,3.60
2022-12-31T06:21:37.362Z,3.64
2022-12-31T06:24:11.180Z,3.64
2022-12-31T06:26:49.362Z,3.67
2022-12-31T06:29:30.714Z,3.69
2022-12-31T06:32:06.225Z,3.68
2022-12-31T06:34:54.294Z,3.65
2022-12-31T06:37:28.681Z,3.66
2022-12-31T06:40:07.671Z,3.69
2022-12-31T06:42:45.521Z,3.81
2022-12-31T06:45:23.470Z,3.72
2022-12-31T06:48:01.039Z,3.75
2022-12-31T06:50:41.622Z,3.76
2022-12-31T06:53:25.261Z,3.71
2022-12-31T06:56:09.586Z,3.82
2022-12-31T06:58:48.749Z,3.80
2022-12-31T07:01:36.219Z,3.89
2022-12-31T07:04:30.976Z,3.92
2022-12-31T07:07:26.495Z,3.97
2022-12-31T07:10:29.470Z,3.90
2022-12-31T07:13:26.705Z,3.85
2022-12-31T07:16:24.041Z,3.94
2022-12-31T07:19:21.014Z,3.96
2022-12-31T07:22:02.329Z,3.90
2022-12-31T07:24:48.942Z,3.97
2022-12-31T07:27:30.145Z,3.94
2022-12-31T07:30:17.193Z,4.00
2022-12-31T07:33:20.492Z,4.06
2022-12-31T07:36:19.810Z,4.06
2022-12-31T07:39:10.790Z,4.15
2022-12-31T07:41:45.829Z,4.13
2022-12-31T07:44:46.466Z,4.18
2022-12-31T07:47:31.186Z,4.23
2022-12-31T07:50:11.011Z,4.24
2022-12-31T07:52:46.802Z,4.28
2022-12-31T07:55:22.067Z,4.34
2022-12-31T07:58:24.924Z,4.42
2022-12-31T08:01:09.656Z,4.35
2022-12-31T08:04:03.330Z,4.59
2022-12-31T08:07:09.042Z,4.69
2022-12-31T08:09:58.352Z,4.79
2022-12-31T08:12:40.800Z,4.86
2022-12-31T08:15:31.143Z,4.85
2022-12-31T08:18:09.555Z,4.94
2022-12-31T08:21:35.065Z,5.00
2022-12-31T08:24:47.360Z,5.02
2022-12-31T08:27:32.229Z,5.11
2022-12-31T08:31:16.314Z,5.17
2022-12-31T08:34:17.295Z,5.29
2022-12-31T08:37:14.608Z,5.18
2022-12-31T08:58:50.125Z,5.56
2022-12-31T09:01:36.168Z,5.59
2022-12-31T09:04:20.142Z,5.53
2022-12-31T09:07:02.921Z,5.49
2022-12-31T09:10:05.955Z,5.48
2022-12-31T09:12:46.328Z,5.46
2022-12-31T09:15:35.743Z,5.46
2022-12-31T09:18:11.817Z,5.50
2022-12-31T09:21:07.446Z,5.50
2022-12-31T09:23:44.487Z,5.66
2022-12-31T09:26:48.947Z,5.71
2022-12-31T09:29:46.946Z,5.72
2022-12-31T09:32:41.280Z,5.84
2022-12-31T09:35:31.676Z,5.84
2022-12-31T09:38:44.052Z,5.88
2022-12-31T09:41:49.909Z,5.95
2022-12-31T09:44:59.275Z,5.97
2022-12-31T09:48:05.350Z,6.03
2022-12-31T09:51:09.623Z,6.16
2022-12-31T09:54:16.444Z,6.24
2022-12-31T09:57:05.609Z,6.40
2022-12-31T09:59:51.809Z,6.51
2022-12-31T10:03:07.425Z,6.51
2022-12-31T10:06:08.131Z,6.61
2022-12-31T10:09:22.526Z,6.54
2022-12-31T10:12:26.998Z,6.59
2022-12-31T10:15:15.513Z,6.64
2022-12-31T10:18:04.129Z,6.76
2022-12-31T10:20:51.912Z,6.79
2022-12-31T10:23:35.049Z,6.87
2022-12-31T10:26:16.179Z,6.76
2022-12-31T10:29:00.627Z,6.95
2022-12-31T10:31:47.942Z,6.95
2022-12-31T10:34:23.232Z,7.00
2022-12-31T10:37:20.485Z,7.17
2022-12-31T10:40:24.105Z,7.27
2022-12-31T10:43:16.780Z,7.24
2022-12-31T10:46:20.913Z,7.22
2022-12-31T10:49:38.145Z,7.39
2022-12-31T10:52:25.566Z,7.16
2022-12-31T10:55:29.388Z,7.28
2022-12-31T10:58:36.845Z,7.22
2022-12-31T11:01:38.087Z,7.13
2022-12-31T11:04:29.313Z,7.13
2022-12-31T11:07:33.846Z,7.03
2022-12-31T11:10:22.235Z,7.08
2022-12-31T11:14:06.185Z,6.92
2022-12-31T11:16:51.137Z,7.05
2022-12-31T11:19:38.067Z,7.20
2022-12-31T11:22:51.148Z,7.07
2022-12-31T11:25:42.099Z,7.17
2022-12-31T11:28:24.415Z,7.07
2022-12-31T11:31:25.249Z,7.17
2022-12-31T11:34:24.824Z,7.36
2022-12-31T11:38:02.483Z,7.43
2022-12-31T11:40:54.606Z,7.35
2022-12-31T11:43:40.033Z,7.41
2022-12-31T11:46:29.991Z,7.15
2022-12-31T11:49:17.401Z,7.30
2022-12-31T11:52:18.285Z,7.38
2022-12-31T11:54:54.466Z,7.47
2022-12-31T11:57:55.824Z,7.36
2022-12-31T12:00:42.125Z,7.31
2022-12-31T12:03:26.342Z,7.29
2022-12-31T12:06:06.125Z,7.28
2022-12-31T12:08:46.873Z,7.16
2022-12-31T12:11:42.958Z,7.15
2022-12-31T12:14:55.005Z,7.08
2022-12-31T12:17:47.859Z,7.14
2022-12-31T12:20:40.874Z,7.27
2022-12-31T12:23:34.861Z,7.39
2022-12-31T12:26:34.317Z,7.41
2022-12-31T12:29:33.034Z,7.45
2022-12-31T12:32:13.569Z,7.64
2022-12-31T12:34:50.050Z,7.62
2022-12-31T12:37:39.115Z,7.59
2022-12-31T12:40:24.054Z,7.73
2022-12-31T12:43:04.157Z,7.76
2022-12-31T12:46:20.645Z,7.85
2022-12-31T12:49:05.773Z,7.93
2022-12-31T12:52:12.898Z,7.98
2022-12-31T12:55:01.371Z,7.98
2022-12-31T12:57:57.639Z,7.96
2022-12-31T13:01:04.308Z,8.03
2022-12-31T13:04:34.095Z,8.10
2022-12-31T13:07:44.068Z,8.16
2022-12-31T13:10:58.721Z,8.16
2022-12-31T13:14:03.905Z,8.09
2022-12-31T13:17:04.300Z,8.25
2022-12-31T13:19:59.055Z,8.17
2022-12-31T13:22:46.896Z,8.18
2022-12-31T13:25:37.830Z,8.08
2022-12-31T13:28:21.146Z,8.08
2022-12-31T13:31:15.599Z,8.03
2022-12-31T13:33:58.311Z,8.11
2022-12-31T13:36:42.651Z,8.15
2022-12-31T13:39:43.964Z,8.19
2022-12-31T13:42:55.519Z,8.23
2022-12-31T13:45:56.687Z,8.27
2022-12-31T13:48:58.453Z,8.22
2022-12-31T13:52:06.762Z,8.18
2022-12-31T13:54:58.251Z,8.25
2022-12-31T13:58:06.145Z,8.25
2022-12-31T14:00:50.771Z,8.15
2022-12-31T14:03:33.973Z,8.05
2022-12-31T14:06:17.860Z,8.11
2022-12-31T14:09:06.270Z,8.07
2022-12-31T14:11:50.687Z,8.09
2022-12-31T14:14:57.854Z,8.03
2022-12-31T14:18:04.113Z,7.93
2022-12-31T14:20:51.465Z,7.94
2022-12-31T14:24:10.930Z,8.05
2022-12-31T14:27:09.365Z,8.02
2022-12-31T14:30:08.283Z,8.05
2022-12-31T14:33:06.255Z,8.03
2022-12-31T14:35:58.017Z,8.00
2022-12-31T14:39:15.544Z,7.86
2022-12-31T14:42:40.803Z,7.76
2022-12-31T14:46:00.310Z,7.72
2022-12-31T14:48:55.800Z,7.69
2022-12-31T14:51:47.147Z,7.64
2022-12-31T14:54:37.676Z,7.52
2022-12-31T14:58:01.720Z,7.46
2022-12-31T15:01:02.329Z,7.43
2022-12-31T15:03:46.179Z,7.38
2022-12-31T15:06:39.381Z,7.28
2022-12-31T15:09:43.033Z,7.30
2022-12-31T15:12:53.462Z,7.31
2022-12-31T15:25:42.604Z,7.13
2022-12-31T15:28:41.022Z,7.18
2022-12-31T15:31:26.301Z,7.14
2022-12-31T15:34:23.747Z,7.11
2022-12-31T15:37:34.316Z,7.07
2022-12-31T15:40:29.219Z,7.02
2022-12-31T15:43:13.159Z,7.02
2022-12-31T15:45:58.368Z,7.07
2022-12-31T15:49:04.996Z,7.06
2022-12-31T15:51:51.896Z,7.03
2022-12-31T15:54:43.785Z,7.03
2022-12-31T15:57:32.693Z,6.86
2022-12-31T16:00:24.169Z,6.89
2022-12-31T16:03:28.168Z,6.86
2022-12-31T16:06:13.347Z,6.70
2022-12-31T16:09:02.810Z,6.45
2022-12-31T16:11:44.629Z,6.34
2022-12-31T16:14:39.154Z,6.36
2022-12-31T16:17:40.042Z,6.44
2022-12-31T16:20:31.566Z,6.25
2022-12-31T16:23:28.022Z,6.24
2022-12-31T16:26:06.695Z,6.30
2022-12-31T16:28:42.951Z,6.15
2022-12-31T16:31:24.358Z,6.19
2022-12-31T16:34:45.310Z,6.16
2022-12-31T16:37:33.629Z,6.20
2022-12-31T16:40:31.947Z,6.14
2022-12-31T16:43:24.599Z,6.05
2022-12-31T16:46:23.514Z,5.92
2022-12-31T16:49:19.584Z,5.96
2022-12-31T16:51:55.147Z,6.06
2022-12-31T16:54:39.808Z,6.05
2022-12-31T16:57:29.318Z,6.02
2022-12-31T17:00:10.360Z,6.03
2022-12-31T17:02:48.536Z,6.10
2022-12-31T17:05:28.907Z,6.15
2022-12-31T17:08:23.948Z,6.09
2022-12-31T17:11:08.893Z,6.06
2022-12-31T17:13:49.940Z,6.00
2022-12-31T17:16:31.075Z,5.93
2022-12-31T17:19:11.865Z,5.73
2022-12-31T17:21:58.967Z,5.73
2022-12-31T17:24:52.179Z,5.78
2022-12-31T17:27:41.365Z,5.68
2022-12-31T17:30:55.949Z,5.56
2022-12-31T17:33:42.912Z,5.63
2022-12-31T17:36:31.953Z,5.67
2022-12-31T17:39:26.535Z,5.55
2022-12-31T17:42:13.192Z,5.66
2022-12-31T17:45:08.288Z,5.65
2022-12-31T17:47:58.856Z,5.67
2022-12-31T17:50:54.666Z,5.76
2022-12-31T17:53:31.555Z,5.74
2022-12-31T17:56:15.360Z,5.71
2022-12-31T17:59:04.565Z,5.72
2022-12-31T18:01:50.269Z,5.69
2022-12-31T18:04:47.138Z,5.74
2022-12-31T18:07:24.653Z,5.76
2022-12-31T18:10:11.278Z,5.76
2022-12-31T18:13:04.919Z,5.74
2022-12-31T18:15:51.084Z,5.77
2022-12-31T18:18:40.159Z,5.82
2022-12-31T18:21:38.486Z,5.78
2022-12-31T18:24:25.993Z,5.85
2022-12-31T18:27:03.876Z,5.68
2022-12-31T18:30:05.160Z,5.65
2022-12-31T18:32:57.936Z,5.78
2022-12-31T18:36:09.268Z,5.69
2022-12-31T18:39:00.162Z,5.68
2022-12-31T18:42:07.459Z,5.70
2022-12-31T18:45:07.054Z,5.74
2022-12-31T18:48:02.042Z,5.71
2022-12-31T18:50:43.273Z,5.64
2022-12-31T18:53:37.955Z,5.73
2022-12-31T18:56:21.964Z,5.62
2022-12-31T18:59:09.058Z,5.54
2022-12-31T19:01:55.301Z,5.52
2022-12-31T19:04:34.161Z,5.37
2022-12-31T19:07:16.383Z,5.40
2022-12-31T19:09:58.447Z,5.25
2022-12-31T19:12:40.703Z,5.27
2022-12-31T19:15:32.585Z,5.12
2022-12-31T19:18:18.751Z,5.23
2022-12-31T19:21:17.926Z,5.08
2022-12-31T19:24:12.578Z,5.00
2022-12-31T19:26:49.297Z,4.86
2022-12-31T19:29:51.143Z,4.89
2022-12-31T19:32:31.748Z,4.80
2022-12-31T19:35:12.877Z,4.70
2022-12-31T19:37:50.310Z,4.58
2022-12-31T19:40:33.755Z,4.53
2022-12-31T19:43:15.819Z,4.44
2022-12-31T19:46:24.551Z,4.44
2022-12-31T19:49:10.974Z,4.46
2022-12-31T19:51:48.586Z,4.38
2022-12-31T19:54:30.444Z,4.25
2022-12-31T19:57:07.761Z,4.18
2022-12-31T19:59:51.840Z,4.09
2022-12-31T20:02:40.366Z,4.00
2022-12-31T20:05:26.325Z,3.98
2022-12-31T20:08:12.862Z,3.91
2022-12-31T20:10:53.349Z,3.84
2022-12-31T20:13:39.590Z,3.81
2022-12-31T20:16:27.000Z,3.73
2022-12-31T20:19:10.813Z,3.64
2022-12-31T20:21:50.320Z,3.62
2022-12-31T20:24:32.520Z,3.58
2022-12-31T20:27:23.885Z,3.35
2022-12-31T20:30:06.977Z,3.36
2022-12-31T20:32:52.841Z,3.33
2022-12-31T20:35:37.478Z,3.36
2022-12-31T20:38:14.330Z,3.50
2022-12-31T20:40:55.130Z,3.52
2022-12-31T20:43:35.594Z,3.36
2022-12-31T20:46:32.007Z,3.43
2022-12-31T20:49:09.027Z,3.48
2022-12-31T20:51:52.412Z,3.50
2022-12-31T20:54:38.365Z,3.41
2022-12-31T20:57:14.609Z,3.43
2022-12-31T21:00:01.663Z,3.38
2022-12-31T21:02:43.265Z,3.40
2022-12-31T21:05:22.314Z,3.37
2022-12-31T21:08:06.484Z,3.36
2022-12-31T21:10:47.793Z,3.26
2022-12-31T21:13:31.495Z,3.10
2022-12-31T21:16:18.553Z,3.08
2022-12-31T21:18:53.594Z,3.27
2022-12-31T21:21:34.685Z,3.26
2022-12-31T21:24:23.640Z,3.17
2022-12-31T21:27:06.076Z,3.11
2022-12-31T21:30:16.815Z,3.16
2022-12-31T21:32:58.518Z,3.01
2022-12-31T21:35:45.826Z,3.00
2022-12-31T21:38:32.823Z,2.85
2022-12-31T21:41:33.313Z,2.79
2022-12-31T21:44:12.301Z,2.78
2022-12-31T21:47:45.650Z,2.73
2022-12-31T21:50:23.629Z,2.69
2022-12-31T21:53:06.930Z,2.73
2022-12-31T21:56:03.633Z,2.70
2022-12-31T21:59:13.024Z,2.64
2022-12-31T22:02:09.415Z,2.61
2022-12-31T22:05:02.375Z,2.60
2022-12-31T22:08:02.951Z,2.45
2022-12-31T22:10:42.787Z,2.62
2022-12-31T22:13:36.112Z,2.54
2022-12-31T22:16:20.195Z,2.46
2022-12-31T22:19:07.280Z,2.50
2022-12-31T22:21:51.220Z,2.42
2022-12-31T22:24:32.348Z,2.41
2022-12-31T22:27:28.358Z,2.42
2022-12-31T22:30:20.871Z,2.36
2022-12-31T22:32:59.993Z,2.30
2022-12-31T22:35:40.309Z,2.31
2022-12-31T22:38:16.357Z,2.22
2022-12-31T22:41:03.419Z,2.10
2022-12-31T22:43:46.440Z,2.16
2022-12-31T22:46:22.413Z,2.15
2022-12-31T22:49:05.288Z,2.16
2022-12-31T22:51:56.736Z,2.13
2022-12-31T22:54:43.323Z,2.07
2022-12-31T22:57:24.681Z,2.08
2022-12-31T23:00:00.699Z,2.08
2022-12-31T23:02:43.611Z,2.04
2022-12-31T23:05:34.243Z,2.04
2022-12-31T23:08:23.299Z,2.01
2022-12-31T23:11:09.779Z,1.91
2022-12-31T23:14:01.507Z,1.92
2022-12-31T23:16:58.315Z,1.85
2022-12-31T23:19:53.977Z,1.85
2022-12-31T23:22:44.271Z,1.79
2022-12-31T23:25:24.826Z,1.66
2022-12-31T23:28:09.249Z,1.66
2022-12-31T23:30:48.549Z,1.64
2022-12-31T23:33:29.446Z,1.65
2022-12-31T23:36:16.146Z,1.51
2022-12-31T23:38:48.265Z,1.62
2022-12-31T23:41:34.573Z,1.49
2022-12-31T23:44:12.042Z,1.44
2022-12-31T23:46:58.385Z,1.38
2022-12-31T23:49:33.767Z,1.34
2022-12-31T23:52:09.882Z,1.30
2022-12-31T23:54:50.816Z,1.07
2022-12-31T23:57:32.344Z,1.13
